createdAt,value
2018-10-06T00:03:50.802Z,6.78
2018-10-06T00:09:41.723Z,6.04
2018-10-06T00:15:32.570Z,13.11
2018-10-06T00:21:23.464Z,4.29
2018-10-06T00:27:14.397Z,7.52
2018-10-06T00:33:05.315Z,8.18
2018-10-06T00:38:56.139Z,6.1
2018-10-06T00:44:47.035Z,5.75
2018-10-06T00:50:37.918Z,6.19
2018-10-06T00:56:28.846Z,8.13
2018-10-06T01:02:19.708Z,6.54
2018-10-06T01:08:10.586Z,5.14
2018-10-06T01:14:01.499Z,6.25
2018-10-06T01:19:52.456Z,6.21
2018-10-06T01:25:43.254Z,7.41
2018-10-06T01:31:34.153Z,15.29
2018-10-06T01:37:25.021Z,5.16
2018-10-06T01:43:15.898Z,6.42
2018-10-06T01:49:06.792Z,5.07
2018-10-06T01:54:57.712Z,6.71
2018-10-06T02:00:48.558Z,6.57
2018-10-06T02:06:39.447Z,9.21
2018-10-06T02:12:30.352Z,7.11
2018-10-06T02:18:21.235Z,5.72
2018-10-06T02:24:12.100Z,6.32
2018-10-06T02:30:03.071Z,7.56
2018-10-06T02:35:53.868Z,6.95
2018-10-06T02:41:44.795Z,6.88
2018-10-06T02:47:35.650Z,8.21
2018-10-06T02:53:26.548Z,10.39
2018-10-06T02:59:17.492Z,9.3
2018-10-06T03:05:08.317Z,6.43
2018-10-06T03:10:59.217Z,5.7
2018-10-06T03:16:50.113Z,5.95
2018-10-06T03:22:40.974Z,6.32
2018-10-06T03:28:31.863Z,7.29
2018-10-06T03:34:22.757Z,6.62
2018-10-06T03:40:13.646Z,8.16
2018-10-06T03:46:04.533Z,7.45
2018-10-06T03:51:55.428Z,8.94
2018-10-06T03:57:46.289Z,8.99
2018-10-06T04:03:37.172Z,8.32
2018-10-06T04:09:28.038Z,9.4
2018-10-06T04:15:19.021Z,7.15
2018-10-06T04:21:09.856Z,11.02
2018-10-06T04:27:00.743Z,8.14
2018-10-06T04:32:51.626Z,8.33
2018-10-06T04:38:42.530Z,13.06
2018-10-06T04:44:33.406Z,14.72
2018-10-06T04:50:24.338Z,19.62
2018-10-06T04:56:15.244Z,12.66
2018-10-06T05:02:06.055Z,12.16
2018-10-06T05:07:56.962Z,6.38
2018-10-06T05:13:47.833Z,6.8
2018-10-06T05:19:38.734Z,7.12
2018-10-06T05:25:29.664Z,8.61
2018-10-06T05:31:20.554Z,15.66
2018-10-06T05:37:11.411Z,11.75
2018-10-06T05:43:02.276Z,13.52
2018-10-06T05:48:53.175Z,11.81
2018-10-06T05:54:44.062Z,12.44
2018-10-06T06:00:34.944Z,14.84
2018-10-06T06:06:25.858Z,13.2
2018-10-06T06:12:16.803Z,10.03
2018-10-06T06:18:07.652Z,8.51
2018-10-06T06:23:58.559Z,8.57
2018-10-06T06:29:49.455Z,37.2
2018-10-06T06:35:40.310Z,27.81
2018-10-06T06:41:31.229Z,13.59
2018-10-06T06:47:22.091Z,38.57
2018-10-06T06:53:13.020Z,20.06
2018-10-06T06:59:03.861Z,36.81
2018-10-06T07:04:54.757Z,13.18
2018-10-06T07:10:45.641Z,15.06
2018-10-06T07:16:36.515Z,28.26
2018-10-06T07:22:27.403Z,18.95
2018-10-06T07:28:18.365Z,40.83
2018-10-06T07:34:09.181Z,13.39
2018-10-06T07:40:00.057Z,7.08
2018-10-06T07:45:50.961Z,11.4
2018-10-06T07:51:41.903Z,10.53
2018-10-06T07:57:32.759Z,16.39
2018-10-06T08:03:23.642Z,27.94
2018-10-06T08:09:14.545Z,33.64
2018-10-06T08:15:05.441Z,23.33
2018-10-06T08:21:00.381Z,28.75
2018-10-06T08:26:47.234Z,24.96
2018-10-06T08:32:38.055Z,20.24
2018-10-06T08:38:28.927Z,23.75
2018-10-06T08:44:19.903Z,20.22
2018-10-06T08:50:10.753Z,12.51
2018-10-06T08:56:01.681Z,25.81
2018-10-06T09:01:52.541Z,18.34
2018-10-06T09:07:43.420Z,26.8
2018-10-06T09:13:34.305Z,29.12
2018-10-06T09:19:25.154Z,26.66
2018-10-06T09:25:16.057Z,18.39
2018-10-06T09:31:06.924Z,25.47
2018-10-06T09:36:57.829Z,25.4
2018-10-06T09:42:48.946Z,30.27
2018-10-06T09:48:39.622Z,26.54
2018-10-06T09:54:30.523Z,33.17
2018-10-06T10:00:21.415Z,31.71
2018-10-06T10:06:12.329Z,21.86
2018-10-06T10:12:03.199Z,19.35
2018-10-06T10:17:54.173Z,24.28
2018-10-06T10:23:45.040Z,20.11
2018-10-06T10:29:35.843Z,15.21
2018-10-06T10:35:26.765Z,13.57
2018-10-06T10:41:17.621Z,15.28
2018-10-06T10:47:08.586Z,12.37
2018-10-06T10:52:59.432Z,12.57
2018-10-06T10:58:50.352Z,13.78
2018-10-06T11:04:41.250Z,15.19
2018-10-06T11:10:32.116Z,18.99
2018-10-06T11:16:23.017Z,13.23
2018-10-06T11:22:13.871Z,18.54
2018-10-06T11:28:04.814Z,13.91
2018-10-06T11:33:55.666Z,20.09
2018-10-06T11:39:46.563Z,17.48
2018-10-06T11:45:37.554Z,16.49
2018-10-06T11:51:28.356Z,13.77
2018-10-06T11:57:19.274Z,13.75
2018-10-06T12:03:10.162Z,16.8
2018-10-06T12:09:01.031Z,20.16
2018-10-06T12:14:51.914Z,19.25
2018-10-06T12:20:42.832Z,19.88
2018-10-06T12:26:33.722Z,14.57
2018-10-06T12:32:24.626Z,18.27
2018-10-06T12:38:15.511Z,18.78
2018-10-06T12:44:06.399Z,16.49
2018-10-06T12:49:57.273Z,15.94
2018-10-06T12:55:48.160Z,15.43
2018-10-06T13:01:39.059Z,12.6
2018-10-06T13:07:30.055Z,17.31
2018-10-06T13:13:20.808Z,13.25
2018-10-06T13:19:11.733Z,17.14
2018-10-06T13:25:02.605Z,17.51
2018-10-06T13:30:53.474Z,17.59
2018-10-06T13:36:44.363Z,17.52
2018-10-06T13:42:35.277Z,20.95
2018-10-06T13:54:17.032Z,24.24
2018-10-06T14:00:08.248Z,22.08
2018-10-06T14:05:58.801Z,19.74
2018-10-06T14:11:49.668Z,21.85
2018-10-06T14:17:40.557Z,31.51
2018-10-06T14:23:31.465Z,19.3
2018-10-06T14:29:22.320Z,20.28
2018-10-06T14:35:13.198Z,27.04
2018-10-06T14:41:04.181Z,23.07
2018-10-06T14:46:54.980Z,26.42
2018-10-06T14:52:45.861Z,17.01
2018-10-06T14:58:36.740Z,14.3
2018-10-06T15:04:27.618Z,18.81
2018-10-06T15:10:18.615Z,16.3
2018-10-06T15:16:09.388Z,19.39
2018-10-06T15:22:00.281Z,19.72
2018-10-06T15:27:51.174Z,19.47
2018-10-06T15:33:42.070Z,21.06
2018-10-06T15:39:32.937Z,14.31
2018-10-06T15:45:23.814Z,17.64
2018-10-06T15:51:14.721Z,20.32
2018-10-06T15:57:05.571Z,16.31
2018-10-06T16:02:56.514Z,10.5
2018-10-06T16:08:47.361Z,9.83
2018-10-06T16:14:38.203Z,8.19
2018-10-06T16:20:29.156Z,11.45
2018-10-06T16:26:20.023Z,15.63
2018-10-06T16:32:10.867Z,20.83
2018-10-06T16:38:01.753Z,19.51
2018-10-06T16:43:52.650Z,16.85
2018-10-06T16:49:43.587Z,18.02
2018-10-06T16:55:34.401Z,18.42
2018-10-06T17:01:25.278Z,15.54
2018-10-06T17:07:16.184Z,15.23
2018-10-06T17:13:07.058Z,12.13
2018-10-06T17:18:57.971Z,14.87
2018-10-06T17:24:48.822Z,8.23
2018-10-06T17:30:39.702Z,6.5
2018-10-06T17:36:30.584Z,10.59
2018-10-06T17:42:21.471Z,8.3
2018-10-06T17:48:12.349Z,7.29
2018-10-06T17:54:03.217Z,8.44
2018-10-06T17:59:54.120Z,7.93
2018-10-06T18:05:44.989Z,11.11
2018-10-06T18:11:35.889Z,12.49
2018-10-06T18:17:26.753Z,9.81
2018-10-06T18:23:17.640Z,10.09
2018-10-06T18:29:08.627Z,10.52
2018-10-06T18:34:59.438Z,10.31
2018-10-06T18:40:50.285Z,12.87
2018-10-06T18:46:41.199Z,12.74
2018-10-06T18:52:32.063Z,14.46
2018-10-06T18:58:22.935Z,29.61
2018-10-06T19:04:13.930Z,12.14
2018-10-06T19:10:04.846Z,10.47
2018-10-06T19:15:55.610Z,16.58
2018-10-06T19:21:46.470Z,15.35
2018-10-06T19:27:37.369Z,15.55
2018-10-06T19:33:28.245Z,18.43
2018-10-06T19:39:19.123Z,23.25
2018-10-06T19:45:09.999Z,16.3
2018-10-06T19:51:00.906Z,19.54
2018-10-06T19:56:51.752Z,22.1
2018-10-06T20:02:42.646Z,17.56
2018-10-06T20:08:33.531Z,19.38
2018-10-06T20:14:24.405Z,20.41
2018-10-06T20:20:15.317Z,24.19
2018-10-06T20:26:06.167Z,24.82
2018-10-06T20:31:57.102Z,23.42
2018-10-06T20:37:47.980Z,22.99
2018-10-06T20:43:38.828Z,15.75
2018-10-06T20:49:29.695Z,22.52
2018-10-06T20:55:20.576Z,20.5
2018-10-06T21:01:11.458Z,18.28
2018-10-06T21:07:02.351Z,19.18
2018-10-06T21:12:53.237Z,20.84
2018-10-06T21:18:44.150Z,21.04
2018-10-06T21:24:34.998Z,19.95
2018-10-06T21:30:25.882Z,22.51
2018-10-06T21:36:16.752Z,22.21
2018-10-06T21:42:07.725Z,22.95
2018-10-06T21:47:58.531Z,18.38
2018-10-06T21:53:49.421Z,20.85
2018-10-06T21:59:40.314Z,22.99
2018-10-06T22:05:31.215Z,19.91
2018-10-06T22:11:22.074Z,19.34
2018-10-06T22:17:13.038Z,22.87
2018-10-06T22:23:03.822Z,21.73
2018-10-06T22:28:54.703Z,18.42
2018-10-06T22:34:45.582Z,17.1
2018-10-06T22:40:36.452Z,17.8
2018-10-06T22:46:27.339Z,17
2018-10-06T22:52:18.250Z,13.54
2018-10-06T22:58:09.093Z,15.11
2018-10-06T23:04:00.007Z,23.16
2018-10-06T23:09:50.879Z,25.01
2018-10-06T23:15:41.734Z,25.77
2018-10-06T23:21:32.628Z,28.44
2018-10-06T23:27:23.549Z,24.82
2018-10-06T23:33:14.387Z,26.92
2018-10-06T23:39:05.372Z,30.09
2018-10-06T23:44:56.139Z,25.2
2018-10-06T23:50:47.013Z,24.44
2018-10-06T23:56:37.908Z,21.77
